createdAt,value
2023-02-24T00:02:01.419Z,12.50
2023-02-24T00:06:59.999Z,10.32
2023-02-24T00:09:31.495Z,12.38
2023-02-24T00:12:02.527Z,13.40
2023-02-24T00:14:33.198Z,13.45
2023-02-24T00:17:03.119Z,12.32
2023-02-24T00:19:33.865Z,13.48
2023-02-24T00:22:03.397Z,13.23
2023-02-24T00:24:32.525Z,13.43
2023-02-24T00:27:07.533Z,12.73
2023-02-24T00:29:37.696Z,13.52
2023-02-24T00:32:12.310Z,13.10
2023-02-24T00:34:41.944Z,12.88
2023-02-24T00:37:10.513Z,12.25
2023-02-24T00:39:41.502Z,12.82
2023-02-24T00:42:12.543Z,13.07
2023-02-24T00:44:44.939Z,12.13
2023-02-24T00:47:17.244Z,12.70
2023-02-24T00:49:45.950Z,12.15
2023-02-24T00:52:17.195Z,12.05
2023-02-24T00:54:47.078Z,12.27
2023-02-24T00:57:17.471Z,12.63
2023-02-24T00:59:47.457Z,13.52
2023-02-24T01:02:17.368Z,12.50
2023-02-24T01:04:46.420Z,12.10
2023-02-24T01:07:16.105Z,11.80
2023-02-24T01:09:45.018Z,13.00
2023-02-24T01:12:32.320Z,12.70
2023-02-24T01:15:02.963Z,13.38
2023-02-24T01:17:32.720Z,12.20
2023-02-24T01:20:15.709Z,12.55
2023-02-24T01:22:44.772Z,13.75
2023-02-24T01:25:13.610Z,11.65
2023-02-24T01:27:43.273Z,12.40
2023-02-24T01:30:15.743Z,12.38
2023-02-24T01:32:47.201Z,12.93
2023-02-24T01:35:16.664Z,11.98
2023-02-24T01:37:45.483Z,12.25
2023-02-24T01:40:21.465Z,14.38
2023-02-24T01:42:50.992Z,14.35
2023-02-24T01:45:28.603Z,13.27
2023-02-24T01:48:03.266Z,14.63
2023-02-24T01:50:33.575Z,13.00
2023-02-24T01:53:06.535Z,14.45
2023-02-24T01:55:38.240Z,13.80
2023-02-24T01:58:15.493Z,15.23
2023-02-24T02:00:47.039Z,14.35
2023-02-24T02:03:27.629Z,14.07
2023-02-24T02:06:01.745Z,15.40
2023-02-24T02:08:30.965Z,14.40
2023-02-24T02:11:06.553Z,14.93
2023-02-24T02:13:36.683Z,14.45
2023-02-24T02:16:27.963Z,14.07
2023-02-24T02:19:20.339Z,14.10
2023-02-24T02:22:23.868Z,14.85
2023-02-24T02:24:58.288Z,14.70
2023-02-24T02:28:31.499Z,13.02
2023-02-24T02:31:51.746Z,13.07
2023-02-24T02:34:34.968Z,12.57
2023-02-24T02:37:11.954Z,13.07
2023-02-24T02:39:52.543Z,14.85
2023-02-24T02:42:30.087Z,12.40
2023-02-24T02:45:08.457Z,13.63
2023-02-24T02:47:43.241Z,13.95
2023-02-24T02:50:19.710Z,14.05
2023-02-24T02:52:54.945Z,13.35
2023-02-24T02:55:34.800Z,13.70
2023-02-24T02:58:09.078Z,14.27
2023-02-24T03:00:49.983Z,12.88
2023-02-24T03:03:20.517Z,13.05
2023-02-24T03:05:57.329Z,12.00
2023-02-24T03:08:34.280Z,11.32
2023-02-24T03:11:05.587Z,11.77
2023-02-24T03:13:38.778Z,12.60
2023-02-24T03:16:11.485Z,11.45
2023-02-24T03:18:45.164Z,12.20
2023-02-24T03:21:25.403Z,12.13
2023-02-24T03:23:54.614Z,13.07
2023-02-24T03:26:30.766Z,13.32
2023-02-24T03:29:07.807Z,12.25
2023-02-24T03:31:45.984Z,11.73
2023-02-24T03:34:21.029Z,11.73
2023-02-24T03:36:51.054Z,11.50
2023-02-24T03:39:19.698Z,11.75
2023-02-24T03:42:08.110Z,12.95
2023-02-24T03:44:37.726Z,11.63
2023-02-24T03:47:06.422Z,12.55
2023-02-24T03:49:37.613Z,13.07
2023-02-24T03:52:21.711Z,11.93
2023-02-24T03:55:13.830Z,12.07
2023-02-24T03:57:59.772Z,12.25
2023-02-24T04:00:41.333Z,13.30
2023-02-24T04:03:26.456Z,13.38
2023-02-24T04:06:14.113Z,13.60
2023-02-24T04:08:52.104Z,11.18
2023-02-24T04:11:29.022Z,12.20
2023-02-24T04:14:06.390Z,12.32
2023-02-24T04:16:41.111Z,11.57
2023-02-24T04:21:48.390Z,9.50
2023-02-24T04:24:28.926Z,11.52
2023-02-24T04:27:00.690Z,13.15
2023-02-24T04:29:36.667Z,11.95
2023-02-24T04:32:11.020Z,12.02
2023-02-24T04:34:41.029Z,12.45
2023-02-24T04:37:10.143Z,11.45
2023-02-24T04:39:39.892Z,12.15
2023-02-24T04:42:19.930Z,11.70
2023-02-24T04:44:48.438Z,12.20
2023-02-24T04:47:17.093Z,13.38
2023-02-24T04:49:45.656Z,11.65
2023-02-24T04:52:15.277Z,13.82
2023-02-24T04:54:45.129Z,12.40
2023-02-24T04:57:14.348Z,12.18
2023-02-24T04:59:43.014Z,10.90
2023-02-24T05:02:13.233Z,13.43
2023-02-24T05:04:41.788Z,12.13
2023-02-24T05:07:12.712Z,13.07
2023-02-24T05:09:41.305Z,10.82
2023-02-24T05:12:10.843Z,12.18
2023-02-24T05:14:39.597Z,12.95
2023-02-24T05:17:08.385Z,12.23
2023-02-24T05:19:54.244Z,13.48
2023-02-24T05:22:22.848Z,12.40
2023-02-24T05:24:51.359Z,13.43
2023-02-24T05:27:22.267Z,12.25
2023-02-24T05:29:50.859Z,11.27
2023-02-24T05:32:19.432Z,13.20
2023-02-24T05:34:48.138Z,13.23
2023-02-24T05:37:16.797Z,12.52
2023-02-24T05:39:45.444Z,13.98
2023-02-24T05:42:13.974Z,13.35
2023-02-24T05:44:43.553Z,13.02
2023-02-24T05:47:12.111Z,13.85
2023-02-24T05:49:40.962Z,13.63
2023-02-24T05:52:11.222Z,13.43
2023-02-24T05:54:41.746Z,13.60
2023-02-24T05:57:12.780Z,12.23
2023-02-24T05:59:43.362Z,14.32
2023-02-24T06:02:13.707Z,13.75
2023-02-24T06:04:50.793Z,13.02
2023-02-24T06:07:22.796Z,12.10
2023-02-24T06:09:53.866Z,12.32
2023-02-24T06:12:24.644Z,13.00
2023-02-24T06:14:54.530Z,14.40
2023-02-24T06:17:24.272Z,12.85
2023-02-24T06:19:54.037Z,13.88
2023-02-24T06:22:24.474Z,14.55
2023-02-24T06:24:54.265Z,14.10
2023-02-24T06:27:25.226Z,13.02
2023-02-24T06:29:57.576Z,14.48
2023-02-24T06:32:27.997Z,12.50
2023-02-24T06:34:57.500Z,13.52
2023-02-24T06:37:26.142Z,14.43
2023-02-24T06:39:54.761Z,13.73
2023-02-24T06:42:23.486Z,14.00
2023-02-24T06:44:52.008Z,15.40
2023-02-24T06:47:22.663Z,13.82
2023-02-24T06:49:51.425Z,13.27
2023-02-24T06:52:19.903Z,14.88
2023-02-24T06:54:52.324Z,14.90
2023-02-24T06:57:20.871Z,13.45
2023-02-24T06:59:50.832Z,13.63
2023-02-24T07:02:20.783Z,15.18
2023-02-24T07:04:49.307Z,14.95
2023-02-24T07:07:18.854Z,13.50
2023-02-24T07:09:47.559Z,13.27
2023-02-24T07:12:20.840Z,14.73
2023-02-24T07:14:50.662Z,12.88
2023-02-24T07:17:19.905Z,14.52
2023-02-24T07:19:49.452Z,13.73
2023-02-24T07:22:25.005Z,15.52
2023-02-24T07:25:00.280Z,13.75
2023-02-24T07:27:28.871Z,13.90
2023-02-24T07:29:59.149Z,14.27
2023-02-24T07:32:27.764Z,14.73
2023-02-24T07:34:57.355Z,14.35
2023-02-24T07:37:25.870Z,14.90
2023-02-24T07:39:54.340Z,15.57
2023-02-24T07:42:22.879Z,15.40
2023-02-24T07:44:56.103Z,15.00
2023-02-24T07:47:25.143Z,13.25
2023-02-24T07:49:55.303Z,14.07
2023-02-24T07:52:24.899Z,14.38
2023-02-24T07:54:55.066Z,16.33
2023-02-24T07:57:25.103Z,16.30
2023-02-24T07:59:54.068Z,16.02
2023-02-24T08:02:23.765Z,15.45
2023-02-24T08:04:52.338Z,16.55
2023-02-24T08:07:24.600Z,14.73
2023-02-24T08:10:12.303Z,13.40
2023-02-24T08:12:43.604Z,13.23
2023-02-24T08:15:23.936Z,14.13
2023-02-24T08:17:59.796Z,15.27
2023-02-24T08:20:35.971Z,14.60
2023-02-24T08:23:08.578Z,16.17
2023-02-24T08:25:38.443Z,14.40
2023-02-24T08:28:11.822Z,15.00
2023-02-24T08:30:45.397Z,14.45
2023-02-24T08:33:20.623Z,15.93
2023-02-24T08:36:00.903Z,13.38
2023-02-24T08:38:39.796Z,14.25
2023-02-24T08:41:17.657Z,15.43
2023-02-24T08:43:47.405Z,16.30
2023-02-24T08:46:21.219Z,16.52
2023-02-24T08:48:55.437Z,15.32
2023-02-24T08:51:29.650Z,17.08
2023-02-24T08:54:00.927Z,16.80
2023-02-24T08:56:34.590Z,16.75
2023-02-24T08:59:06.318Z,16.33
2023-02-24T09:01:37.317Z,15.93
2023-02-24T09:04:09.524Z,16.70
2023-02-24T09:06:44.854Z,18.35
2023-02-24T09:09:22.395Z,18.17
2023-02-24T09:11:56.003Z,15.32
2023-02-24T09:14:28.819Z,16.10
2023-02-24T09:17:07.142Z,15.63
2023-02-24T09:20:02.234Z,16.77
2023-02-24T09:22:32.941Z,15.70
2023-02-24T09:25:21.593Z,16.05
2023-02-24T09:27:55.621Z,17.80
2023-02-24T09:30:38.570Z,18.07
2023-02-24T09:33:20.858Z,17.10
2023-02-24T09:36:09.626Z,16.00
2023-02-24T09:39:09.730Z,15.95
2023-02-24T09:41:56.882Z,15.93
2023-02-24T09:44:35.181Z,14.63
2023-02-24T09:47:13.515Z,15.02
2023-02-24T09:49:56.025Z,15.82
2023-02-24T09:52:39.681Z,14.65
2023-02-24T09:55:25.967Z,14.18
2023-02-24T09:58:20.111Z,13.35
2023-02-24T10:01:20.835Z,14.68
2023-02-24T10:04:18.289Z,14.15
2023-02-24T10:06:51.534Z,14.45
2023-02-24T10:09:26.933Z,14.05
2023-02-24T10:12:04.477Z,13.73
2023-02-24T10:14:44.580Z,13.50
2023-02-24T10:17:24.167Z,13.15
2023-02-24T10:20:00.493Z,15.85
2023-02-24T10:22:50.354Z,12.60
2023-02-24T10:25:39.359Z,14.27
2023-02-24T10:28:24.555Z,14.05
2023-02-24T10:33:46.003Z,13.35
2023-02-24T10:36:22.202Z,13.70
2023-02-24T10:38:55.906Z,14.95
2023-02-24T10:41:28.703Z,14.57
2023-02-24T10:43:58.782Z,15.27
2023-02-24T10:46:41.042Z,14.63
2023-02-24T10:49:16.698Z,14.77
2023-02-24T10:51:54.219Z,15.27
2023-02-24T10:54:44.802Z,17.73
2023-02-24T10:57:23.145Z,14.32
2023-02-24T11:00:15.371Z,16.90
2023-02-24T11:03:07.049Z,14.57
2023-02-24T11:06:05.887Z,16.13
2023-02-24T11:08:54.257Z,14.13
2023-02-24T11:11:30.749Z,15.32
2023-02-24T11:14:20.428Z,16.48
2023-02-24T11:17:08.583Z,14.35
2023-02-24T11:19:45.132Z,15.05
2023-02-24T11:22:21.290Z,15.82
2023-02-24T11:24:51.878Z,14.82
2023-02-24T11:27:24.391Z,13.25
2023-02-24T11:30:16.916Z,15.25
2023-02-24T11:33:03.870Z,15.25
2023-02-24T11:35:40.741Z,15.43
2023-02-24T11:38:27.874Z,15.90
2023-02-24T11:41:06.459Z,14.82
2023-02-24T11:43:41.307Z,14.10
2023-02-24T11:48:48.518Z,12.70
2023-02-24T11:51:23.384Z,13.57
2023-02-24T11:53:57.642Z,11.95
2023-02-24T11:56:31.887Z,11.77
2023-02-24T11:59:05.078Z,13.00
2023-02-24T12:01:40.381Z,10.48
2023-02-24T12:04:20.060Z,11.73
2023-02-24T12:06:58.474Z,13.35
2023-02-24T12:09:41.623Z,11.93
2023-02-24T12:12:14.915Z,10.35
2023-02-24T12:14:49.601Z,11.38
2023-02-24T12:17:25.333Z,10.55
2023-02-24T12:20:01.590Z,11.35
2023-02-24T12:22:42.347Z,11.20
2023-02-24T12:25:16.697Z,11.35
2023-02-24T12:28:01.882Z,10.30
2023-02-24T12:33:34.231Z,9.15
2023-02-24T12:36:13.278Z,9.40
2023-02-24T12:38:58.635Z,9.55
2023-02-24T12:41:41.710Z,7.85
2023-02-24T12:44:27.044Z,8.63
2023-02-24T12:47:04.847Z,8.65
2023-02-24T12:49:59.194Z,8.85
2023-02-24T12:52:35.678Z,8.10
2023-02-24T12:55:14.743Z,7.93
2023-02-24T12:57:56.603Z,6.00
2023-02-24T13:00:37.594Z,7.50
2023-02-24T13:03:22.926Z,6.78
2023-02-24T13:06:02.673Z,7.18
2023-02-24T13:08:44.211Z,8.70
2023-02-24T13:11:22.088Z,6.63
2023-02-24T13:14:01.374Z,6.82
2023-02-24T13:16:33.009Z,7.20
2023-02-24T13:19:22.212Z,7.25
2023-02-24T13:22:02.523Z,8.52
2023-02-24T13:24:31.373Z,5.90
2023-02-24T13:27:22.424Z,7.13
2023-02-24T13:29:57.402Z,6.95
2023-02-24T13:32:31.676Z,7.60
2023-02-24T13:35:03.336Z,6.85
2023-02-24T13:37:36.432Z,7.03
2023-02-24T13:40:28.126Z,6.40
2023-02-24T13:43:04.882Z,7.40
2023-02-24T13:45:37.190Z,8.82
2023-02-24T13:48:26.722Z,6.50
2023-02-24T13:51:47.364Z,6.20
2023-02-24T13:54:33.149Z,5.45
2023-02-24T13:57:29.371Z,5.88
2023-02-24T14:00:11.376Z,5.95
2023-02-24T14:02:45.105Z,4.95
2023-02-24T14:05:23.031Z,5.70
2023-02-24T14:07:53.179Z,5.88
2023-02-24T14:10:25.075Z,4.55
2023-02-24T14:13:06.736Z,4.30
2023-02-24T14:15:36.143Z,4.38
2023-02-24T14:18:07.298Z,4.05
2023-02-24T14:20:37.867Z,4.45
2023-02-24T14:23:23.226Z,4.07
2023-02-24T14:25:57.849Z,4.10
2023-02-24T14:28:31.142Z,4.10
2023-02-24T14:31:03.693Z,3.55
2023-02-24T14:33:38.543Z,3.72
2023-02-24T14:38:39.903Z,3.22
2023-02-24T14:41:20.175Z,3.38
2023-02-24T14:43:48.741Z,3.45
2023-02-24T14:46:17.409Z,3.78
2023-02-24T14:48:52.738Z,3.65
2023-02-24T14:51:29.369Z,3.65
2023-02-24T14:54:02.850Z,4.00
2023-02-24T14:56:35.180Z,4.57
2023-02-24T14:59:09.478Z,3.95
2023-02-24T15:01:41.118Z,4.30
2023-02-24T15:04:22.163Z,3.08
2023-02-24T15:06:50.534Z,4.00
2023-02-24T15:09:23.650Z,3.78
2023-02-24T15:11:55.565Z,4.55
2023-02-24T15:14:27.613Z,4.20
2023-02-24T15:17:00.336Z,3.70
2023-02-24T15:19:37.228Z,4.20
2023-02-24T15:22:19.140Z,4.45
2023-02-24T15:24:47.404Z,4.72
2023-02-24T15:27:26.737Z,5.47
2023-02-24T15:30:02.645Z,4.88
2023-02-24T15:32:34.638Z,5.03
2023-02-24T15:35:05.757Z,4.05
2023-02-24T15:37:42.483Z,4.57
2023-02-24T15:40:21.786Z,5.82
2023-02-24T15:42:55.847Z,4.18
2023-02-24T15:45:33.175Z,5.35
2023-02-24T15:48:03.128Z,5.25
2023-02-24T15:50:33.561Z,6.63
2023-02-24T15:53:05.429Z,5.80
2023-02-24T15:55:33.731Z,5.38
2023-02-24T15:58:04.428Z,4.78
2023-02-24T16:00:33.008Z,4.75
2023-02-24T16:03:01.517Z,5.47
2023-02-24T16:05:30.231Z,5.28
2023-02-24T16:07:59.816Z,4.35
2023-02-24T16:10:31.094Z,6.47
2023-02-24T16:13:01.791Z,5.03
2023-02-24T16:15:35.581Z,5.93
2023-02-24T16:18:04.976Z,5.40
2023-02-24T16:20:35.743Z,4.72
2023-02-24T16:23:06.939Z,5.10
2023-02-24T16:25:44.607Z,5.88
2023-02-24T16:28:15.834Z,4.63
2023-02-24T16:30:45.264Z,4.03
2023-02-24T16:33:15.206Z,4.53
2023-02-24T16:35:44.578Z,4.40
2023-02-24T16:38:15.297Z,3.30
2023-02-24T16:40:46.207Z,3.60
2023-02-24T16:43:15.253Z,4.18
2023-02-24T16:45:46.015Z,3.90
2023-02-24T16:48:20.897Z,3.58
2023-02-24T16:50:49.520Z,3.88
2023-02-24T16:53:24.033Z,4.45
2023-02-24T16:55:52.940Z,3.83
2023-02-24T16:58:23.242Z,3.13
2023-02-24T17:00:56.158Z,2.63
2023-02-24T17:03:28.132Z,2.38
2023-02-24T17:05:57.745Z,2.30
2023-02-24T17:08:27.683Z,2.75
2023-02-24T17:10:57.757Z,2.50
2023-02-24T17:13:27.646Z,3.20
2023-02-24T17:15:57.243Z,2.17
2023-02-24T17:18:26.991Z,3.53
2023-02-24T17:20:55.940Z,3.17
2023-02-24T17:23:24.375Z,2.65
2023-02-24T17:25:57.928Z,2.38
2023-02-24T17:28:26.793Z,2.47
2023-02-24T17:30:55.372Z,1.90
2023-02-24T17:33:24.118Z,2.25
2023-02-24T17:35:52.665Z,2.00
2023-02-24T17:38:24.120Z,2.20
2023-02-24T17:40:55.606Z,2.78
2023-02-24T17:43:24.133Z,1.65
2023-02-24T17:45:53.650Z,2.47
2023-02-24T17:48:23.048Z,2.30
2023-02-24T17:50:51.960Z,2.08
2023-02-24T17:53:20.245Z,2.30
2023-02-24T17:56:01.972Z,1.98
2023-02-24T17:58:33.270Z,2.38
2023-02-24T18:01:02.965Z,3.05
2023-02-24T18:03:31.901Z,1.92
2023-02-24T18:06:01.552Z,2.08
2023-02-24T18:08:30.704Z,2.17
2023-02-24T18:11:00.867Z,1.67
2023-02-24T18:13:32.355Z,2.05
2023-02-24T18:16:01.506Z,2.40
2023-02-24T18:18:30.296Z,1.90
2023-02-24T18:21:02.809Z,1.73
2023-02-24T18:23:31.963Z,2.65
2023-02-24T18:26:03.678Z,1.83
2023-02-24T18:28:34.672Z,2.20
2023-02-24T18:31:10.370Z,2.10
2023-02-24T18:33:39.290Z,1.80
2023-02-24T18:36:09.078Z,1.42
2023-02-24T18:38:37.773Z,1.65
2023-02-24T18:41:08.024Z,2.13
2023-02-24T18:43:37.937Z,1.50
2023-02-24T18:46:09.371Z,1.67
2023-02-24T18:48:40.067Z,3.63
2023-02-24T18:51:09.027Z,3.22
2023-02-24T18:53:38.234Z,2.20
2023-02-24T18:56:09.203Z,2.53
2023-02-24T18:58:40.737Z,2.03
2023-02-24T19:01:14.793Z,1.83
2023-02-24T19:03:43.911Z,2.92
2023-02-24T19:06:13.132Z,2.35
2023-02-24T19:08:42.580Z,2.38
2023-02-24T19:11:13.270Z,2.53
2023-02-24T19:13:43.748Z,1.88
2023-02-24T19:16:12.642Z,1.92
2023-02-24T19:18:41.004Z,1.80
2023-02-24T19:21:11.079Z,1.92
2023-02-24T19:23:39.595Z,2.15
2023-02-24T19:26:15.314Z,2.08
2023-02-24T19:28:45.064Z,1.52
2023-02-24T19:31:16.237Z,1.55
2023-02-24T19:33:45.064Z,1.38
2023-02-24T19:36:13.713Z,2.30
2023-02-24T19:38:43.038Z,1.73
2023-02-24T19:41:11.745Z,1.92
2023-02-24T19:43:41.691Z,1.80
2023-02-24T19:46:14.584Z,1.70
2023-02-24T19:48:43.330Z,1.85
2023-02-24T19:51:14.549Z,2.28
2023-02-24T19:53:43.124Z,1.85
2023-02-24T19:56:11.806Z,2.50
2023-02-24T19:58:41.938Z,1.98
2023-02-24T20:01:14.721Z,1.80
2023-02-24T20:03:44.337Z,2.67
2023-02-24T20:06:18.949Z,1.92
2023-02-24T20:11:15.524Z,1.50
2023-02-24T20:13:44.240Z,1.63
2023-02-24T20:16:16.745Z,1.95
2023-02-24T20:18:46.082Z,2.33
2023-02-24T20:21:16.008Z,3.35
2023-02-24T20:23:44.853Z,2.78
2023-02-24T20:26:16.128Z,3.42
2023-02-24T20:28:45.409Z,3.20
2023-02-24T20:31:18.517Z,2.97
2023-02-24T20:33:48.804Z,2.00
2023-02-24T20:36:21.003Z,2.05
2023-02-24T20:38:50.629Z,2.70
2023-02-24T20:41:19.981Z,2.63
2023-02-24T20:43:48.915Z,2.85
2023-02-24T20:46:24.070Z,2.92
2023-02-24T20:48:53.435Z,2.72
2023-02-24T20:51:23.024Z,2.63
2023-02-24T20:53:57.664Z,2.58
2023-02-24T20:56:27.990Z,2.78
2023-02-24T20:59:00.919Z,2.47
2023-02-24T21:01:32.242Z,2.50
2023-02-24T21:04:01.457Z,3.38
2023-02-24T21:06:30.880Z,2.97
2023-02-24T21:08:59.717Z,3.15
2023-02-24T21:11:30.352Z,3.20
2023-02-24T21:14:00.019Z,3.40
2023-02-24T21:16:30.352Z,3.33
2023-02-24T21:18:59.060Z,3.22
2023-02-24T21:21:27.683Z,3.75
2023-02-24T21:23:56.805Z,3.47
2023-02-24T21:26:27.017Z,4.22
2023-02-24T21:28:57.897Z,3.00
2023-02-24T21:31:26.968Z,3.95
2023-02-24T21:33:57.292Z,3.75
2023-02-24T21:36:27.913Z,4.43
2023-02-24T21:38:56.754Z,3.92
2023-02-24T21:41:25.584Z,3.67
2023-02-24T21:43:55.760Z,3.67
2023-02-24T21:46:28.123Z,3.85
2023-02-24T21:48:59.217Z,3.78
2023-02-24T21:51:29.385Z,3.10
2023-02-24T21:53:58.540Z,3.35
2023-02-24T21:56:29.582Z,3.85
2023-02-24T21:59:00.006Z,3.60
2023-02-24T22:01:31.811Z,3.13
2023-02-24T22:04:03.987Z,3.17
2023-02-24T22:06:34.373Z,3.17
2023-02-24T22:09:04.441Z,3.28
2023-02-24T22:11:35.704Z,3.60
2023-02-24T22:14:04.688Z,3.13
2023-02-24T22:16:33.267Z,4.65
2023-02-24T22:19:03.218Z,3.55
2023-02-24T22:21:31.757Z,3.95
2023-02-24T22:24:03.212Z,4.47
2023-02-24T22:26:32.617Z,3.53
2023-02-24T22:29:02.187Z,4.25
2023-02-24T22:31:34.284Z,4.20
2023-02-24T22:34:05.339Z,3.58
2023-02-24T22:36:36.711Z,3.75
2023-02-24T22:39:06.701Z,4.05
2023-02-24T22:41:36.376Z,3.60
2023-02-24T22:44:06.419Z,3.05
2023-02-24T22:46:37.410Z,3.85
2023-02-24T22:49:07.831Z,2.85
2023-02-24T22:51:36.536Z,3.20
2023-02-24T22:54:05.910Z,2.97
2023-02-24T22:56:34.872Z,2.67
2023-02-24T22:59:03.364Z,3.38
2023-02-24T23:01:33.970Z,2.92
2023-02-24T23:04:03.345Z,2.95
2023-02-24T23:06:33.159Z,3.00
2023-02-24T23:09:03.158Z,2.80
2023-02-24T23:11:33.495Z,2.83
2023-02-24T23:14:05.886Z,2.15
2023-02-24T23:16:36.067Z,2.53
2023-02-24T23:19:07.283Z,2.25
2023-02-24T23:21:39.096Z,2.08
2023-02-24T23:24:10.806Z,2.15
2023-02-24T23:26:41.914Z,2.30
2023-02-24T23:29:11.547Z,2.40
2023-02-24T23:31:40.919Z,2.20
2023-02-24T23:34:09.995Z,2.45
2023-02-24T23:36:43.491Z,1.92
2023-02-24T23:39:14.430Z,2.10
2023-02-24T23:41:45.938Z,2.35
2023-02-24T23:44:14.274Z,2.20
2023-02-24T23:46:42.945Z,2.30
2023-02-24T23:49:11.454Z,2.30
2023-02-24T23:51:48.421Z,2.38
2023-02-24T23:54:17.836Z,2.63
2023-02-24T23:56:46.710Z,2.25
2023-02-24T23:59:15.939Z,2.33
